Salem, Wisconsin
Current Conditions -  °F | °C
As of 10:53 AM on Thursday 27 Nov 2014 (Local Time) from KENW Reporting Station
Broken Clouds Broken Clouds  
Wind Chill: 12°   Ceiling: 1600
Heat Index: 24°   Visibility: 10mi
Dew Point: 16°   Wind: 14mph
Humidity: 71%   Direction: 310°NW
Pressure: 30.32"   Gusts: NA
Location:  42.55°N, 88.11°W
Report Text: KENW 271653Z 31012KT 10SM BKN016 M04/M09 A3032 RMK AO2 SLP279 T10441089 $
Loading
Personal Weather Stations






























Interactive Weather Map New forecast layout! Learn more

10-Day Weather Forecast

Advertisements
Track Severe Weather on mobile